Time;durP1;ratioP1;P1;durP2;ratioP2;P2;SDS_P1;SDS_P2;PMS_P1;PMS_P2;Temp;Humidity;BMP_temperature;BMP_pressure;BME280_temperature;BME280_humidity;BME280_pressure;Samples;Min_cycle;Max_cycle;Signal;HPM_P1;HPM_P2
2022/05/13 00:00:03;;;;;;;578.58;539.72;;;;;;;15.91;43.74;101181.00;688685;28;46329;-69
2022/05/13 00:00:29;;;;;;;590.95;551.80;;;;;;;15.87;43.48;101188.75;685527;28;137629;-69
2022/05/13 00:00:51;;;;;;;596.45;554.85;;;;;;;15.87;43.55;101185.19;689675;28;23161;-70
2022/05/13 00:01:12;;;;;;;583.60;546.08;;;;;;;15.88;43.56;101192.31;688737;28;45383;-69
2022/05/13 00:01:33;;;;;;;555.17;520.25;;;;;;;15.86;43.85;101184.34;686705;28;23869;-69
2022/05/13 00:01:55;;;;;;;579.15;538.15;;;;;;;15.82;43.91;101178.47;686655;28;21481;-69
2022/05/13 00:02:16;;;;;;;590.22;545.53;;;;;;;15.87;43.75;101196.91;685030;28;69485;-69
2022/05/13 00:02:37;;;;;;;584.78;541.88;;;;;;;15.87;43.67;101183.31;686301;28;44372;-69
2022/05/13 00:02:59;;;;;;;566.03;525.42;;;;;;;15.90;43.72;101192.97;687391;28;1787;-69
2022/05/13 00:03:20;;;;;;;556.33;520.33;;;;;;;15.92;43.40;101191.69;687002;28;21499;-69
2022/05/13 00:03:42;;;;;;;560.97;521.03;;;;;;;15.91;43.60;101183.72;686898;28;23377;-69
2022/05/13 00:04:03;;;;;;;545.65;508.98;;;;;;;15.91;43.71;101184.59;685995;28;44353;-70
2022/05/13 00:04:24;;;;;;;535.25;501.70;;;;;;;15.95;43.49;101182.28;685804;28;45329;-70
2022/05/13 00:04:45;;;;;;;539.05;505.23;;;;;;;15.97;43.13;101185.66;686526;28;23238;-69
2022/05/13 00:05:08;;;;;;;483.92;456.80;;;;;;;15.96;43.06;101182.09;686470;28;22396;-69
2022/05/13 00:05:30;;;;;;;466.08;441.35;;;;;;;15.90;43.38;101182.06;685257;28;69312;-69
2022/05/13 00:05:51;;;;;;;519.10;487.60;;;;;;;15.94;43.16;101192.38;687021;28;21099;-69
2022/05/13 00:06:12;;;;;;;580.95;539.85;;;;;;;15.92;43.38;101186.25;686557;28;22552;-70
2022/05/13 00:06:34;;;;;;;574.35;533.75;;;;;;;15.91;43.36;101189.19;687129;28;22420;-69
2022/05/13 00:06:55;;;;;;;558.35;520.40;;;;;;;15.91;43.59;101183.72;688530;28;46337;-70
2022/05/13 00:07:16;;;;;;;570.08;530.85;;;;;;;15.82;43.25;101172.19;689297;28;22407;-69
2022/05/13 00:07:37;;;;;;;575.22;535.25;;;;;;;15.87;43.17;101177.03;689355;28;21532;-70
2022/05/13 00:07:59;;;;;;;578.33;538.03;;;;;;;15.95;43.28;101179.56;689285;28;22339;-70
2022/05/13 00:08:20;;;;;;;578.55;536.58;;;;;;;15.96;43.27;101181.25;688766;28;45500;-69
2022/05/13 00:08:42;;;;;;;569.53;531.47;;;;;;;15.92;43.53;101178.09;689445;28;23469;-69
2022/05/13 00:09:04;;;;;;;575.17;538.47;;;;;;;15.90;43.38;101173.91;688949;28;46322;-70
2022/05/13 00:09:56;;;;;;;570.53;534.22;;;;;;;15.94;43.39;101175.16;687752;28;69417;-69
2022/05/13 00:10:08;;;;;;;545.58;510.40;;;;;;;15.92;43.56;101179.97;685800;28;137138;-69
2022/05/13 00:10:29;;;;;;;567.33;528.25;;;;;;;15.90;43.63;101179.34;688525;28;44450;-69
2022/05/13 00:10:50;;;;;;;577.03;530.00;;;;;;;15.92;43.65;101178.09;689580;28;22396;-69
2022/05/13 00:11:13;;;;;;;568.97;520.17;;;;;;;15.90;43.99;101177.44;689403;28;21523;-69
2022/05/13 00:11:34;;;;;;;581.10;532.60;;;;;;;15.93;43.79;101181.66;686375;28;70152;-69
2022/05/13 00:11:55;;;;;;;581.50;531.58;;;;;;;15.92;43.65;101175.34;689891;28;22334;-69
2022/05/13 00:12:17;;;;;;;571.55;518.42;;;;;;;15.91;43.77;101176.41;689638;28;23418;-69
2022/05/13 00:12:41;;;;;;;553.65;499.13;;;;;;;15.90;43.99;101179.34;688794;28;46456;-70
2022/05/13 00:13:02;;;;;;;554.80;503.15;;;;;;;15.87;43.97;101171.56;686817;28;91849;-70
2022/05/13 00:13:23;;;;;;;563.38;515.47;;;;;;;15.84;43.77;101172.81;689733;28;17208;-69
2022/05/13 00:13:45;;;;;;;562.80;520.45;;;;;;;15.86;43.72;101181.59;689691;28;21476;-69
2022/05/13 00:14:08;;;;;;;561.35;520.00;;;;;;;15.86;43.84;101176.16;689785;28;21531;-69
2022/05/13 00:14:29;;;;;;;560.00;518.03;;;;;;;15.85;43.85;101182.66;686622;28;92239;-69
2022/05/13 00:14:51;;;;;;;557.72;516.40;;;;;;;15.83;43.97;101188.31;690256;28;21530;-69
2022/05/13 00:15:16;;;;;;;552.88;513.45;;;;;;;15.82;43.73;101183.06;690834;28;21545;-69
2022/05/13 00:15:40;;;;;;;560.10;519.22;;;;;;;15.77;43.82;101180.94;686604;28;137532;-70
2022/05/13 00:16:04;;;;;;;569.60;526.67;;;;;;;15.73;43.75;101182.34;688175;28;92298;-70
2022/05/13 00:16:25;;;;;;;565.63;523.58;;;;;;;15.68;43.83;101168.50;687588;28;69688;-69
2022/05/13 00:16:46;;;;;;;550.67;513.22;;;;;;;15.70;43.82;101177.31;687918;28;22425;-69
2022/05/13 00:17:11;;;;;;;521.70;489.88;;;;;;;15.70;43.99;101181.91;686070;28;45238;-69
2022/05/13 00:17:33;;;;;;;554.25;518.03;;;;;;;15.68;44.19;101187.56;684413;28;92261;-69
2022/05/13 00:17:55;;;;;;;565.67;526.67;;;;;;;15.67;44.20;101189.47;686425;28;43397;-70
2022/05/13 00:18:16;;;;;;;565.83;527.38;;;;;;;15.67;43.71;101184.00;685770;28;46336;-69
2022/05/13 00:18:38;;;;;;;563.83;525.78;;;;;;;15.66;44.03;101190.50;686191;28;40806;-69
2022/05/13 00:19:00;;;;;;;519.28;487.58;;;;;;;15.63;43.77;101177.28;685847;28;44511;-70
2022/05/13 00:19:21;;;;;;;565.00;523.63;;;;;;;15.64;43.63;101183.53;685768;28;44952;-69
2022/05/13 00:19:43;;;;;;;561.30;520.28;;;;;;;15.63;43.93;101187.34;685790;28;21499;-69
2022/05/13 00:20:07;;;;;;;541.92;507.48;;;;;;;15.61;44.05;101183.94;686866;28;22530;-69
2022/05/13 00:20:28;;;;;;;536.33;503.48;;;;;;;15.60;44.15;101179.56;684191;28;92222;-69
2022/05/13 00:20:49;;;;;;;544.03;510.48;;;;;;;15.59;43.76;101181.41;686630;28;22552;-69
2022/05/13 00:21:10;;;;;;;542.53;510.05;;;;;;;15.59;44.00;101189.59;686144;28;46313;-69
2022/05/13 00:21:33;;;;;;;549.35;515.22;;;;;;;15.58;44.15;101182.47;685836;28;24351;-69
2022/05/13 00:21:54;;;;;;;560.75;524.53;;;;;;;15.57;43.86;101186.22;685760;28;46704;-69
2022/05/13 00:22:16;;;;;;;550.75;515.65;;;;;;;15.54;44.24;101178.47;686552;28;23706;-69
2022/05/13 00:22:43;;;;;;;530.88;498.85;;;;;;;15.51;43.80;101184.31;683274;28;44326;-70
2022/05/13 00:23:04;;;;;;;526.00;495.15;;;;;;;15.53;44.26;101186.84;678791;28;161370;-70
2022/05/13 00:23:26;;;;;;;517.90;487.98;;;;;;;15.50;44.19;101188.91;683222;28;45197;-69
2022/05/13 00:23:47;;;;;;;522.05;491.27;;;;;;;15.53;43.93;101192.28;684033;28;23448;-69
2022/05/13 00:24:09;;;;;;;540.10;507.08;;;;;;;15.44;44.38;101181.53;685219;28;23702;-69
2022/05/13 00:24:30;;;;;;;579.50;540.45;;;;;;;15.48;44.18;101187.41;685964;28;46646;-70
2022/05/13 00:24:53;;;;;;;590.42;548.10;;;;;;;15.40;44.12;101173.97;686717;28;22516;-69
2022/05/13 00:25:16;;;;;;;544.80;510.13;;;;;;;15.45;44.44;101180.50;685131;28;67474;-70
2022/05/13 00:25:41;;;;;;;465.63;441.33;;;;;;;15.42;44.24;101182.78;684609;28;67457;-70
2022/05/13 00:26:02;;;;;;;552.58;519.88;;;;;;;15.42;44.03;101188.22;683907;28;115881;-70
2022/05/13 00:26:25;;;;;;;576.90;541.05;;;;;;;15.39;44.46;101181.31;686380;28;22391;-69
2022/05/13 00:26:46;;;;;;;597.38;556.47;;;;;;;15.40;44.35;101180.25;689809;28;69335;-69
2022/05/13 00:27:08;;;;;;;615.03;568.05;;;;;;;15.38;44.44;101179.63;688718;28;21553;-70
2022/05/13 00:27:29;;;;;;;611.15;563.47;;;;;;;15.37;44.82;101177.09;688607;28;44402;-70
2022/05/13 00:27:50;;;;;;;600.10;559.55;;;;;;;15.34;44.65;101181.03;689263;28;24035;-69
2022/05/13 00:28:13;;;;;;;592.58;551.90;;;;;;;15.30;44.83;101180.59;689468;28;23414;-70
2022/05/13 00:28:35;;;;;;;573.47;538.00;;;;;;;15.32;44.66;101180.41;688491;28;44316;-69
2022/05/13 00:28:56;;;;;;;562.63;528.15;;;;;;;15.32;44.59;101188.56;688430;28;46287;-69
2022/05/13 00:29:17;;;;;;;579.15;543.83;;;;;;;15.29;44.70;101178.91;689153;28;22455;-69
2022/05/13 00:29:38;;;;;;;607.33;570.00;;;;;;;15.28;44.71;101179.09;688760;28;44370;-70
2022/05/13 00:30:00;;;;;;;575.63;540.03;;;;;;;15.32;44.51;101183.13;691352;28;46737;-70
2022/05/13 00:30:21;;;;;;;567.22;532.92;;;;;;;15.31;44.52;101178.72;691176;28;44138;-69
2022/05/13 00:30:44;;;;;;;565.13;531.72;;;;;;;15.29;44.63;101181.63;691951;28;23444;-69
2022/05/13 00:31:05;;;;;;;580.17;545.80;;;;;;;15.28;44.62;101181.81;689574;28;69792;-69
2022/05/13 00:31:28;;;;;;;565.15;531.70;;;;;;;15.28;44.82;101181.81;688693;28;22405;-69
2022/05/13 00:31:49;;;;;;;556.63;523.53;;;;;;;15.27;44.74;101177.44;687911;28;70181;-70
2022/05/13 00:32:11;;;;;;;561.80;528.88;;;;;;;15.26;45.08;101179.31;689190;28;22384;-69
2022/05/13 00:32:32;;;;;;;564.58;531.15;;;;;;;15.28;44.75;101181.81;689254;28;23485;-70
2022/05/13 00:32:54;;;;;;;570.03;535.40;;;;;;;15.27;45.00;101177.44;689436;28;23546;-69
2022/05/13 00:33:16;;;;;;;572.03;536.15;;;;;;;15.30;44.77;101179.78;687763;28;69267;-69
2022/05/13 00:33:38;;;;;;;573.33;536.80;;;;;;;15.30;44.77;101183.31;688390;28;45004;-69
2022/05/13 00:34:01;;;;;;;551.45;518.15;;;;;;;15.31;44.60;101182.28;691168;28;44634;-70
2022/05/13 00:34:22;;;;;;;562.40;528.38;;;;;;;15.34;44.86;101180.22;690033;28;70183;-70
2022/05/13 00:34:43;;;;;;;570.00;536.15;;;;;;;15.34;44.63;101178.31;691882;28;22406;-69
2022/05/13 00:35:07;;;;;;;585.70;548.80;;;;;;;15.37;44.66;101177.91;692183;28;23990;-69
2022/05/13 00:35:28;;;;;;;582.30;543.42;;;;;;;15.36;44.66;101169.94;688990;28;92324;-69
2022/05/13 00:35:50;;;;;;;588.13;547.63;;;;;;;15.40;44.87;101173.97;689872;28;47802;-69
2022/05/13 00:36:11;;;;;;;596.05;553.42;;;;;;;15.42;44.86;101180.06;688704;28;45201;-69
2022/05/13 00:36:32;;;;;;;590.20;547.90;;;;;;;15.43;44.87;101176.31;687181;28;22421;-69
2022/05/13 00:36:53;;;;;;;580.22;539.92;;;;;;;15.46;44.87;101178.63;686952;28;21539;-69
2022/05/13 00:37:17;;;;;;;593.65;548.65;;;;;;;15.47;44.74;101170.25;689389;28;21114;-69
2022/05/13 00:37:39;;;;;;;592.55;539.75;;;;;;;15.45;44.69;101164.19;687134;28;78396;-69
2022/05/13 00:38:00;;;;;;;573.67;518.92;;;;;;;15.50;44.51;101169.00;689140;28;23447;-69
2022/05/13 00:38:21;;;;;;;563.05;505.67;;;;;;;15.53;44.78;101171.31;686441;28;23548;-70
2022/05/13 00:38:42;;;;;;;556.97;499.90;;;;;;;15.54;44.79;101167.56;686732;28;22332;-69
2022/05/13 00:39:05;;;;;;;558.45;501.33;;;;;;;15.56;44.63;101168.22;686410;28;21514;-70
2022/05/13 00:39:26;;;;;;;555.25;498.13;;;;;;;15.59;44.35;101173.25;684950;28;69406;-69
2022/05/13 00:39:47;;;;;;;551.40;494.23;;;;;;;15.62;44.24;101180.19;685313;28;21344;-70
2022/05/13 00:40:10;;;;;;;547.00;490.10;;;;;;;15.62;44.27;101175.56;686742;28;23485;-69
2022/05/13 00:40:35;;;;;;;544.90;487.98;;;;;;;15.64;44.71;101168.06;685275;28;60944;-69
2022/05/13 00:40:57;;;;;;;542.90;486.00;;;;;;;15.62;44.61;101170.13;685148;28;70776;-70
2022/05/13 00:41:18;;;;;;;541.17;484.45;;;;;;;15.64;44.83;101173.53;686780;28;23474;-69
2022/05/13 00:41:41;;;;;;;537.33;480.52;;;;;;;15.64;44.69;101172.66;687622;28;45222;-69
2022/05/13 00:42:08;;;;;;;538.90;482.00;;;;;;;15.61;44.72;101168.47;688738;28;45341;-69
2022/05/13 00:42:29;;;;;;;519.22;462.92;;;;;;;15.64;44.77;101173.53;685048;28;137654;-69
2022/05/13 00:42:50;;;;;;;520.05;463.75;;;;;;;15.63;44.72;101168.28;689649;28;22262;-70
2022/05/13 00:43:13;;;;;;;526.45;469.85;;;;;;;15.64;44.67;101165.34;689482;28;21742;-69
2022/05/13 00:43:44;;;;;;;528.13;471.58;;;;;;;15.64;44.83;101169.94;687673;28;67220;-69
2022/05/13 00:44:06;;;;;;;520.00;463.60;;;;;;;15.65;44.89;101174.34;684550;28;161181;-70
2022/05/13 00:44:27;;;;;;;516.85;460.48;;;;;;;15.66;44.50;101182.31;689634;28;8217;-69
2022/05/13 00:44:48;;;;;;;525.70;469.17;;;;;;;15.66;44.86;101176.03;688199;28;22382;-69
2022/05/13 00:45:13;;;;;;;518.42;462.13;;;;;;;15.67;44.79;101173.13;688043;28;22384;-69
2022/05/13 00:45:35;;;;;;;514.35;458.08;;;;;;;15.67;44.77;101177.69;684310;28;116088;-70
2022/05/13 00:45:56;;;;;;;509.90;453.70;;;;;;;15.67;44.90;101167.66;687939;28;40836;-69
2022/05/13 00:46:17;;;;;;;507.30;451.13;;;;;;;15.68;44.83;101172.06;690183;28;22498;-69
2022/05/13 00:46:39;;;;;;;505.00;448.95;;;;;;;15.67;44.74;101167.66;689358;28;21443;-69
2022/05/13 00:47:01;;;;;;;503.90;444.58;;;;;;;15.67;44.30;101170.41;689817;28;44975;-70
2022/05/13 00:47:23;;;;;;;505.92;447.05;;;;;;;15.67;44.61;101180.44;689921;28;13323;-69
2022/05/13 00:47:47;;;;;;;505.30;449.13;;;;;;;15.64;44.40;101172.66;689905;28;38080;-69
2022/05/13 00:48:09;;;;;;;504.17;446.13;;;;;;;15.63;44.22;101180.00;690934;28;21371;-69
2022/05/13 00:48:30;;;;;;;509.13;452.75;;;;;;;15.63;44.32;101177.28;689878;28;46290;-69
2022/05/13 00:48:52;;;;;;;518.60;462.17;;;;;;;15.64;44.47;101169.94;690286;28;21537;-69
2022/05/13 00:49:14;;;;;;;523.22;466.58;;;;;;;15.65;44.32;101182.50;688239;28;47266;-69
2022/05/13 00:49:37;;;;;;;531.75;474.77;;;;;;;15.61;44.17;101178.50;688359;28;44364;-70
2022/05/13 00:50:00;;;;;;;532.25;475.35;;;;;;;15.62;44.07;101178.31;687541;28;68801;-69
2022/05/13 00:50:21;;;;;;;524.92;468.50;;;;;;;15.60;44.11;101176.84;687738;28;67460;-69
2022/05/13 00:50:43;;;;;;;522.58;466.27;;;;;;;15.55;44.09;101168.41;689232;28;23496;-69
2022/05/13 00:51:06;;;;;;;533.33;476.63;;;;;;;15.54;43.99;101170.28;688576;28;46623;-69
2022/05/13 00:51:30;;;;;;;544.03;487.08;;;;;;;15.54;44.40;101167.56;686140;28;67490;-69
2022/05/13 00:51:51;;;;;;;547.28;490.17;;;;;;;15.54;44.17;101178.47;684357;28;90333;-69
2022/05/13 00:52:13;;;;;;;547.20;490.27;;;;;;;15.52;44.02;101172.38;686870;28;22385;-69
2022/05/13 00:52:35;;;;;;;556.55;499.45;;;;;;;15.50;44.19;101183.47;685847;28;46285;-69
2022/05/13 00:52:56;;;;;;;558.92;501.73;;;;;;;15.50;44.13;101182.63;685687;28;44369;-69
2022/05/13 00:53:17;;;;;;;556.92;499.63;;;;;;;15.49;44.43;101170.91;686052;28;23480;-69
2022/05/13 00:53:38;;;;;;;555.30;498.00;;;;;;;15.51;44.27;101178.84;686655;28;22402;-69
2022/05/13 00:54:01;;;;;;;565.38;508.10;;;;;;;15.53;44.23;101170.50;686488;28;21301;-69
2022/05/13 00:54:22;;;;;;;565.38;508.02;;;;;;;15.53;44.20;101176.78;684843;28;67487;-69
2022/05/13 00:54:43;;;;;;;574.75;517.25;;;;;;;15.52;44.61;101168.81;686798;28;21539;-70
2022/05/13 00:55:09;;;;;;;570.00;512.50;;;;;;;15.51;44.51;101162.53;686399;28;23507;-69
2022/05/13 00:55:35;;;;;;;568.60;511.08;;;;;;;15.56;44.80;101172.81;681942;28;138116;-69
2022/05/13 00:55:57;;;;;;;561.42;504.10;;;;;;;15.56;44.78;101173.66;682663;28;138129;-70
2022/05/13 00:56:19;;;;;;;561.17;503.98;;;;;;;15.49;44.54;101164.63;685575;28;45086;-69
2022/05/13 00:56:43;;;;;;;556.40;499.15;;;;;;;15.54;44.88;101183.06;687486;28;45026;-69
2022/05/13 00:57:06;;;;;;;564.92;507.58;;;;;;;15.52;44.82;101176.97;686718;28;91624;-69
2022/05/13 00:57:27;;;;;;;567.30;509.80;;;;;;;15.49;44.91;101167.34;687221;28;67258;-69
2022/05/13 00:57:49;;;;;;;564.85;507.40;;;;;;;15.48;44.92;101171.91;689788;28;22387;-69
2022/05/13 00:58:13;;;;;;;572.15;514.72;;;;;;;15.45;44.95;101175.06;688403;28;46336;-69
2022/05/13 00:58:38;;;;;;;562.25;504.92;;;;;;;15.49;45.11;101175.50;687345;28;92450;-70
2022/05/13 00:59:02;;;;;;;557.72;500.42;;;;;;;15.44;44.84;101170.66;685912;28;113340;-69
2022/05/13 00:59:25;;;;;;;560.83;503.63;;;;;;;15.45;45.39;101169.63;686746;28;92653;-69
2022/05/13 00:59:49;;;;;;;557.90;500.33;;;;;;;15.47;45.52;101169.44;686888;28;69386;-69
2022/05/13 01:00:14;;;;;;;560.35;503.05;;;;;;;15.43;45.32;101174.41;686451;28;92012;-69
2022/05/13 01:00:36;;;;;;;559.88;502.48;;;;;;;15.44;45.43;101173.38;685967;28;115277;-69
2022/05/13 01:00:57;;;;;;;553.88;496.70;;;;;;;15.46;45.50;101175.91;688379;28;45840;-69
2022/05/13 01:01:19;;;;;;;552.00;494.90;;;;;;;15.45;45.62;101175.06;690879;28;23681;-69
2022/05/13 01:01:40;;;;;;;558.65;501.45;;;;;;;15.40;45.42;101160.38;690575;28;45302;-69
2022/05/13 01:02:02;;;;;;;554.35;497.25;;;;;;;15.45;45.47;101168.75;691757;28;23473;-69
2022/05/13 01:02:23;;;;;;;551.92;494.83;;;;;;;15.46;45.77;101170.47;691357;28;23451;-69
2022/05/13 01:02:46;;;;;;;547.22;490.23;;;;;;;15.43;45.64;101170.84;690571;28;46305;-70
2022/05/13 01:03:07;;;;;;;538.30;481.63;;;;;;;15.43;45.44;101149.09;687869;28;67240;-69
2022/05/13 01:03:28;;;;;;;544.38;487.48;;;;;;;15.50;45.17;101177.16;689343;28;23530;-69
2022/05/13 01:03:50;;;;;;;542.42;485.50;;;;;;;15.49;45.26;101170.91;689015;28;23441;-69
2022/05/13 01:04:13;;;;;;;537.47;480.83;;;;;;;15.50;45.25;101171.72;688702;28;22400;-70
2022/05/13 01:04:35;;;;;;;544.20;487.20;;;;;;;15.44;45.03;101167.94;686730;28;92972;-69
2022/05/13 01:04:57;;;;;;;535.65;478.95;;;;;;;15.46;45.12;101170.47;685851;28;46702;-69
2022/05/13 01:05:19;;;;;;;542.40;485.63;;;;;;;15.49;44.90;101173.63;686604;28;23482;-69
2022/05/13 01:05:41;;;;;;;542.22;485.38;;;;;;;15.50;45.18;101175.31;686501;28;45191;-69
2022/05/13 01:06:07;;;;;;;532.78;476.20;;;;;;;15.46;44.91;101167.75;687943;28;69438;-69
2022/05/13 01:06:28;;;;;;;527.55;470.75;;;;;;;15.50;45.01;101175.31;684256;28;138078;-69
2022/05/13 01:06:55;;;;;;;536.15;479.25;;;;;;;15.45;45.22;101166.91;689343;28;23486;-69
2022/05/13 01:07:18;;;;;;;531.00;474.20;;;;;;;15.46;44.84;101175.91;685137;28;137731;-69
2022/05/13 01:07:40;;;;;;;528.88;472.05;;;;;;;15.44;44.76;101173.38;686988;28;90695;-69
2022/05/13 01:08:06;;;;;;;525.50;468.98;;;;;;;15.45;44.59;101176.94;689778;28;21533;-69
2022/05/13 01:08:32;;;;;;;518.85;462.35;;;;;;;15.41;44.61;101175.66;685509;28;138105;-69
2022/05/13 01:08:56;;;;;;;524.08;467.67;;;;;;;15.39;44.67;101175.88;685472;28;138028;-69
2022/05/13 01:09:17;;;;;;;523.20;466.70;;;;;;;15.38;44.64;101171.44;687325;28;69714;-69
2022/05/13 01:09:42;;;;;;;517.97;461.35;;;;;;;15.37;44.73;101177.91;687800;28;46314;-69
2022/05/13 01:10:06;;;;;;;518.30;461.90;;;;;;;15.36;44.94;101176.25;686102;28;115596;-69
2022/05/13 01:10:27;;;;;;;518.78;462.17;;;;;;;15.37;45.16;101177.91;685900;28;115083;-69
2022/05/13 01:10:49;;;;;;;524.00;467.25;;;;;;;15.35;44.84;101177.28;688912;28;22036;-69
2022/05/13 01:11:13;;;;;;;523.03;466.47;;;;;;;15.37;44.71;101175.19;689339;28;22349;-69
2022/05/13 01:11:37;;;;;;;522.35;465.85;;;;;;;15.38;45.19;101170.63;685559;28;115270;-69
2022/05/13 01:12:03;;;;;;;520.70;464.13;;;;;;;15.39;45.11;101175.00;687027;28;92275;-69
2022/05/13 01:12:29;;;;;;;511.55;455.23;;;;;;;15.40;45.04;101174.81;685241;28;136481;-69
2022/05/13 01:12:55;;;;;;;509.63;453.42;;;;;;;15.40;44.89;101174.81;685194;28;137916;-69
2022/05/13 01:13:20;;;;;;;509.85;453.50;;;;;;;15.39;44.73;101169.56;685627;28;137764;-69
2022/05/13 01:13:46;;;;;;;508.30;452.00;;;;;;;15.41;44.68;101172.94;686350;28;113594;-69
2022/05/13 01:14:12;;;;;;;511.65;455.30;;;;;;;15.41;44.88;101176.50;686158;28;114973;-70
2022/05/13 01:14:36;;;;;;;511.85;455.35;;;;;;;15.42;44.95;101172.75;685417;28;138222;-69
2022/05/13 01:15:00;;;;;;;503.58;444.20;;;;;;;15.45;44.72;101176.94;686951;28;92624;-71
2022/05/13 01:15:23;;;;;;;504.27;441.38;;;;;;;15.42;44.66;101169.16;686218;28;113985;-69
2022/05/13 01:15:47;;;;;;;504.85;441.58;;;;;;;15.45;44.47;101174.22;686619;28;90717;-69
2022/05/13 01:16:08;;;;;;;503.98;440.55;;;;;;;15.47;44.54;101169.44;686968;28;92700;-69
2022/05/13 01:16:29;;;;;;;505.35;442.85;;;;;;;15.47;44.62;101175.72;687379;28;22242;-69
2022/05/13 01:18:11;;;;;;;524.25;467.75;;;;;;;15.49;44.66;101175.50;682661;28;137553;-69
2022/05/13 01:18:36;;;;;;;529.97;473.38;;;;;;;15.49;44.54;101167.34;686552;28;21462;-70
2022/05/13 01:19:01;;;;;;;535.78;479.02;;;;;;;15.47;44.68;101164.00;684299;28;92326;-69
2022/05/13 01:19:22;;;;;;;530.70;473.92;;;;;;;15.50;44.53;101171.72;683110;28;114720;-69
2022/05/13 01:19:44;;;;;;;533.42;476.42;;;;;;;15.48;44.89;101169.19;685962;28;23429;-69
2022/05/13 01:20:07;;;;;;;538.50;481.75;;;;;;;15.48;44.98;101169.19;685638;28;46314;-69
2022/05/13 01:20:32;;;;;;;542.13;485.30;;;;;;;15.52;44.50;101174.25;684029;28;92161;-69
2022/05/13 01:20:53;;;;;;;542.80;486.00;;;;;;;15.52;44.83;101174.25;682355;28;138785;-69
2022/05/13 01:21:20;;;;;;;543.72;486.83;;;;;;;15.54;44.75;101169.47;685615;28;46328;-69
2022/05/13 01:21:43;;;;;;;539.97;483.05;;;;;;;15.49;44.97;101159.19;682063;28;136279;-69
2022/05/13 01:22:12;;;;;;;542.08;485.23;;;;;;;15.48;45.03;101161.03;684589;28;92228;-69
2022/05/13 01:22:42;;;;;;;558.60;501.23;;;;;;;15.48;45.33;101171.91;682335;28;137670;-69
2022/05/13 01:23:06;;;;;;;545.25;488.35;;;;;;;15.45;45.32;101174.22;683124;28;137645;-69
2022/05/13 01:23:30;;;;;;;551.65;494.55;;;;;;;15.46;45.19;101175.91;684458;28;91894;-69
2022/05/13 01:23:52;;;;;;;552.53;495.45;;;;;;;15.46;44.98;101173.19;684664;28;92250;-69
2022/05/13 01:24:13;;;;;;;546.83;489.92;;;;;;;15.40;45.12;101169.38;686036;28;46405;-69
2022/05/13 01:24:36;;;;;;;542.17;485.17;;;;;;;15.44;45.41;101172.56;687141;28;22385;-69
2022/05/13 01:24:57;;;;;;;557.70;500.50;;;;;;;15.41;45.68;101173.78;685475;28;69347;-69
2022/05/13 01:25:20;;;;;;;559.00;501.75;;;;;;;15.44;45.38;101176.09;686858;28;22376;-69
2022/05/13 01:25:44;;;;;;;551.33;494.08;;;;;;;15.41;45.37;101171.06;684171;28;92326;-69
2022/05/13 01:26:08;;;;;;;539.85;482.92;;;;;;;15.36;45.27;101168.09;686044;28;70132;-70
2022/05/13 01:26:30;;;;;;;538.58;481.58;;;;;;;15.36;45.51;101173.53;684821;28;90339;-69
2022/05/13 01:26:51;;;;;;;540.80;483.85;;;;;;;15.31;45.33;101170.53;688945;28;44451;-69
2022/05/13 01:27:13;;;;;;;539.60;482.80;;;;;;;15.30;45.58;101174.31;689180;28;46367;-69
2022/05/13 01:27:34;;;;;;;538.95;482.25;;;;;;;15.28;45.59;101179.09;689543;28;21528;-69
2022/05/13 01:28:00;;;;;;;538.60;481.80;;;;;;;15.24;45.67;101173.22;690159;28;22392;-69
2022/05/13 01:28:22;;;;;;;539.03;482.02;;;;;;;15.25;45.82;101171.34;685028;28;138730;-69
2022/05/13 01:28:47;;;;;;;529.45;472.70;;;;;;;15.17;45.48;101166.03;688013;28;69742;-69
2022/05/13 01:29:09;;;;;;;527.70;471.13;;;;;;;15.18;45.53;101168.56;687046;28;92250;-69
2022/05/13 01:29:30;;;;;;;532.05;475.25;;;;;;;15.18;45.85;101165.84;688632;28;33202;-69
2022/05/13 01:29:53;;;;;;;527.25;470.55;;;;;;;15.18;45.91;101165.84;690211;28;1690;-70
2022/05/13 01:30:16;;;;;;;530.72;474.15;;;;;;;15.18;45.92;101162.31;688380;28;21180;-69
2022/05/13 01:30:43;;;;;;;526.00;469.42;;;;;;;15.17;45.72;101166.88;687374;28;92104;-69
2022/05/13 01:31:07;;;;;;;525.90;469.38;;;;;;;15.14;45.98;101170.84;685931;28;137803;-69
2022/05/13 01:31:30;;;;;;;525.13;468.55;;;;;;;15.12;45.81;101172.06;686412;28;90600;-69
2022/05/13 01:31:51;;;;;;;524.67;467.95;;;;;;;15.09;45.72;101158.88;687718;28;70046;-69
2022/05/13 01:32:13;;;;;;;521.95;465.42;;;;;;;15.11;46.01;101167.69;689844;28;23707;-69
2022/05/13 01:32:34;;;;;;;535.17;478.27;;;;;;;15.01;45.88;101161.72;689160;28;45310;-69
2022/05/13 01:32:56;;;;;;;533.65;476.73;;;;;;;15.04;46.08;101167.63;690437;28;10903;-69
2022/05/13 01:33:18;;;;;;;524.95;468.15;;;;;;;15.07;46.32;101169.94;689761;28;22386;-69
2022/05/13 01:33:41;;;;;;;534.97;477.73;;;;;;;15.05;46.05;101169.31;688881;28;45251;-69
2022/05/13 01:34:05;;;;;;;523.65;466.85;;;;;;;15.03;46.14;101174.13;687024;28;92281;-69
2022/05/13 01:34:26;;;;;;;522.83;466.10;;;;;;;15.02;46.02;101172.41;688038;28;69292;-69
2022/05/13 01:34:47;;;;;;;523.10;466.40;;;;;;;14.98;46.43;101165.69;690033;28;21528;-71
2022/05/13 01:35:10;;;;;;;524.40;467.65;;;;;;;14.98;46.50;101168.41;689814;28;22385;-69
2022/05/13 01:35:32;;;;;;;524.25;467.38;;;;;;;14.97;46.52;101164.00;687125;28;93234;-69
2022/05/13 01:35:55;;;;;;;521.95;465.15;;;;;;;14.92;46.27;101164.59;689848;28;21271;-69
2022/05/13 01:36:17;;;;;;;513.75;457.27;;;;;;;14.92;46.61;101166.47;687998;28;69498;-69
2022/05/13 01:36:39;;;;;;;512.75;456.25;;;;;;;14.91;46.37;101171.06;688463;28;46679;-69
2022/05/13 01:37:02;;;;;;;505.77;444.52;;;;;;;14.89;46.45;101169.56;688957;28;45308;-69
2022/05/13 01:37:23;;;;;;;505.05;440.38;;;;;;;14.88;46.66;101173.34;688155;28;69455;-69
2022/05/13 01:37:45;;;;;;;504.77;440.63;;;;;;;14.91;46.44;101172.94;689626;28;21538;-69
2022/05/13 01:38:06;;;;;;;504.00;439.75;;;;;;;14.90;46.52;101173.97;688768;28;46415;-69
2022/05/13 01:38:30;;;;;;;503.90;436.08;;;;;;;14.90;46.78;101172.09;689138;28;22457;-69
2022/05/13 01:38:53;;;;;;;506.88;446.10;;;;;;;14.84;46.79;101166.59;687211;28;91562;-69
2022/05/13 01:39:14;;;;;;;505.85;446.13;;;;;;;14.88;46.56;101173.34;688204;28;70123;-69
2022/05/13 01:39:35;;;;;;;506.35;441.58;;;;;;;14.89;46.63;101175.00;691455;28;24681;-69
2022/05/13 01:39:56;;;;;;;508.35;444.85;;;;;;;14.89;46.83;101173.16;691181;28;46326;-69
2022/05/13 01:40:18;;;;;;;503.77;439.48;;;;;;;14.85;46.70;101168.28;691921;28;22385;-69
2022/05/13 01:40:40;;;;;;;505.60;439.92;;;;;;;14.89;46.81;101175.00;691665;28;22408;-69
2022/05/13 01:41:02;;;;;;;504.88;441.25;;;;;;;14.85;46.59;101171.84;691575;28;46324;-69
2022/05/13 01:41:24;;;;;;;504.00;437.63;;;;;;;14.90;46.58;101177.53;690152;28;44343;-69
2022/05/13 01:41:46;;;;;;;506.83;447.10;;;;;;;14.91;46.72;101176.50;688535;28;46218;-69
2022/05/13 01:42:11;;;;;;;517.65;461.20;;;;;;;14.92;46.57;101180.06;688777;28;45009;-69